createdAt,value
2018-01-13T00:01:42.885Z,28.70
2018-01-13T00:04:10.455Z,33.30
2018-01-13T00:06:38.033Z,39.13
2018-01-13T00:09:05.608Z,34.90
2018-01-13T00:11:33.164Z,37.77
2018-01-13T00:14:00.745Z,37.33
2018-01-13T00:16:28.319Z,34.20
2018-01-13T00:18:55.889Z,34.73
2018-01-13T00:21:23.455Z,34.53
2018-01-13T00:23:51.027Z,36.03
2018-01-13T00:26:18.605Z,30.77
2018-01-13T00:28:46.169Z,39.93
2018-01-13T00:31:13.741Z,41.10
2018-01-13T00:33:41.300Z,33.33
2018-01-13T00:36:08.881Z,29.37
2018-01-13T00:38:36.364Z,38.20
2018-01-13T00:41:03.928Z,36.23
2018-01-13T00:43:31.599Z,34.50
2018-01-13T00:45:59.172Z,45.70
2018-01-13T00:48:27.459Z,42.20
2018-01-13T00:50:55.028Z,40.27
2018-01-13T00:53:23.315Z,43.23
2018-01-13T00:55:50.883Z,38.40
2018-01-13T00:58:18.388Z,36.40
2018-01-13T01:00:46.625Z,44.57
2018-01-13T01:03:14.116Z,42.17
2018-01-13T01:05:41.653Z,41.23
2018-01-13T01:08:09.114Z,43.10
2018-01-13T01:10:36.619Z,60.28
2018-01-13T01:13:04.116Z,52.30
2018-01-13T01:15:32.484Z,45.20
2018-01-13T01:17:59.961Z,42.80
2018-01-13T01:20:27.548Z,41.47
2018-01-13T01:22:55.129Z,36.93
2018-01-13T01:25:22.687Z,54.97
2018-01-13T01:27:50.399Z,90.60
2018-01-13T01:30:17.878Z,83.60
2018-01-13T01:32:45.361Z,54.20
2018-01-13T01:35:12.847Z,60.57
2018-01-13T01:37:40.341Z,71.27
2018-01-13T01:40:07.916Z,62.90
2018-01-13T01:42:35.487Z,49.20
2018-01-13T01:45:03.055Z,146.53
2018-01-13T01:47:30.620Z,139.37
2018-01-13T01:49:58.101Z,127.80
2018-01-13T01:52:25.661Z,91.63
2018-01-13T01:54:53.153Z,117.30
2018-01-13T01:57:21.425Z,60.97
2018-01-13T01:59:49.705Z,172.03
2018-01-13T02:02:17.282Z,87.20
2018-01-13T02:04:44.760Z,100.25
2018-01-13T02:07:13.043Z,104.63
2018-01-13T02:09:40.608Z,106.67
2018-01-13T02:12:08.092Z,99.60
2018-01-13T02:14:35.649Z,66.83
2018-01-13T02:17:03.220Z,50.57
2018-01-13T02:19:30.701Z,71.00
2018-01-13T02:21:58.960Z,48.97
2018-01-13T02:24:26.429Z,56.67
2018-01-13T02:26:53.907Z,48.33
2018-01-13T02:29:21.479Z,79.40
2018-01-13T02:31:48.954Z,99.83
2018-01-13T02:34:16.649Z,112.63
2018-01-13T02:36:44.915Z,86.73
2018-01-13T02:39:12.487Z,100.90
2018-01-13T02:41:39.965Z,87.30
2018-01-13T02:44:07.437Z,66.10
2018-01-13T02:46:34.900Z,62.53
2018-01-13T02:49:02.480Z,37.80
2018-01-13T02:51:30.756Z,56.73
2018-01-13T02:53:58.324Z,37.47
2018-01-13T02:56:26.565Z,37.83
2018-01-13T02:58:54.037Z,40.30
2018-01-13T03:01:21.550Z,41.17
2018-01-13T03:03:49.029Z,35.20
2018-01-13T03:06:16.501Z,28.17
2018-01-13T03:08:44.060Z,28.57
2018-01-13T03:11:11.642Z,32.53
2018-01-13T03:13:39.888Z,29.00
2018-01-13T03:16:07.534Z,26.47
2018-01-13T03:18:35.069Z,27.13
2018-01-13T03:21:02.536Z,29.03
2018-01-13T03:23:30.016Z,29.30
2018-01-13T03:25:57.484Z,24.60
2018-01-13T03:28:25.022Z,31.87
2018-01-13T03:30:52.497Z,28.37
2018-01-13T03:33:20.101Z,27.73
2018-01-13T03:35:48.342Z,33.50
2018-01-13T03:38:16.040Z,33.53
2018-01-13T03:40:43.615Z,27.93
2018-01-13T03:43:11.083Z,29.70
2018-01-13T03:45:38.560Z,30.77
2018-01-13T03:48:06.123Z,33.37
2018-01-13T03:50:33.597Z,26.77
2018-01-13T03:53:01.164Z,30.33
2018-01-13T03:55:28.633Z,28.43
2018-01-13T03:57:56.105Z,31.90
2018-01-13T04:00:23.676Z,29.70
2018-01-13T04:02:51.254Z,41.07
2018-01-13T04:05:18.824Z,40.07
2018-01-13T04:07:46.379Z,30.03
2018-01-13T04:10:13.868Z,37.40
2018-01-13T04:12:41.347Z,31.97
2018-01-13T04:15:09.621Z,32.80
2018-01-13T04:17:37.096Z,26.37
2018-01-13T04:20:04.672Z,32.33
2018-01-13T04:22:32.943Z,28.50
2018-01-13T04:25:00.414Z,28.90
2018-01-13T04:27:27.988Z,26.97
2018-01-13T04:29:55.551Z,26.37
2018-01-13T04:32:23.123Z,25.67
2018-01-13T04:34:50.699Z,28.07
2018-01-13T04:37:18.179Z,29.03
2018-01-13T04:39:45.651Z,27.17
2018-01-13T04:42:14.128Z,27.17
2018-01-13T04:44:41.600Z,28.17
2018-01-13T04:47:09.068Z,28.97
2018-01-13T04:49:36.537Z,30.53
2018-01-13T04:52:04.113Z,26.87
2018-01-13T04:54:31.671Z,28.40
2018-01-13T04:56:59.151Z,26.63
2018-01-13T04:59:27.437Z,25.57
2018-01-13T05:01:54.999Z,29.13
2018-01-13T05:04:22.488Z,28.83
2018-01-13T05:06:50.048Z,31.93
2018-01-13T05:09:17.620Z,34.37
2018-01-13T05:11:45.192Z,30.73
2018-01-13T05:14:12.673Z,33.73
2018-01-13T05:16:40.920Z,32.33
2018-01-13T05:19:08.613Z,27.70
2018-01-13T05:21:36.080Z,29.10
2018-01-13T05:24:03.664Z,30.60
2018-01-13T05:26:31.230Z,33.10
2018-01-13T05:28:58.799Z,35.13
2018-01-13T05:31:26.367Z,34.80
2018-01-13T05:33:53.839Z,26.13
2018-01-13T05:36:21.411Z,32.63
2018-01-13T05:38:50.395Z,36.30
2018-01-13T05:41:17.884Z,31.47
2018-01-13T05:43:46.884Z,28.10
2018-01-13T05:46:14.465Z,31.60
2018-01-13T05:48:41.940Z,31.97
2018-01-13T05:51:09.411Z,26.50
2018-01-13T05:53:37.640Z,27.40
2018-01-13T05:56:05.108Z,28.93
2018-01-13T05:58:32.642Z,28.30
2018-01-13T06:01:00.896Z,24.90
2018-01-13T06:03:28.376Z,30.83
2018-01-13T06:05:55.865Z,29.33
2018-01-13T06:08:24.113Z,30.97
2018-01-13T06:10:51.615Z,32.93
2018-01-13T06:13:19.179Z,24.60
2018-01-13T06:15:46.650Z,33.70
2018-01-13T06:18:14.141Z,29.43
2018-01-13T06:20:42.403Z,31.57
2018-01-13T06:23:09.986Z,28.43
2018-01-13T06:25:37.467Z,25.13
2018-01-13T06:28:05.740Z,30.47
2018-01-13T06:30:33.221Z,27.13
2018-01-13T06:33:01.594Z,33.03
2018-01-13T06:35:29.847Z,34.23
2018-01-13T06:37:57.351Z,36.90
2018-01-13T06:40:24.824Z,31.77
2018-01-13T06:42:52.313Z,42.20
2018-01-13T06:45:20.564Z,39.87
2018-01-13T06:47:48.043Z,42.93
2018-01-13T06:50:15.548Z,47.20
2018-01-13T06:52:43.790Z,40.27
2018-01-13T06:55:11.273Z,36.07
2018-01-13T06:57:38.753Z,35.70
2018-01-13T07:00:06.312Z,32.33
2018-01-13T07:02:33.812Z,34.60
2018-01-13T07:05:02.149Z,28.80
2018-01-13T07:07:29.631Z,34.57
2018-01-13T07:09:57.108Z,32.57
2018-01-13T07:12:24.585Z,33.13
2018-01-13T07:14:52.132Z,30.60
2018-01-13T07:17:19.596Z,37.13
2018-01-13T07:19:47.063Z,28.63
2018-01-13T07:22:14.559Z,31.77
2018-01-13T07:24:42.127Z,30.10
2018-01-13T07:27:09.608Z,30.87
2018-01-13T07:29:37.136Z,29.67
2018-01-13T07:32:04.609Z,35.37
2018-01-13T07:34:32.071Z,30.40
2018-01-13T07:36:59.556Z,39.83
2018-01-13T07:39:27.245Z,34.43
2018-01-13T07:41:54.728Z,30.83
2018-01-13T07:44:23.007Z,28.37
2018-01-13T07:46:50.481Z,29.93
2018-01-13T07:49:17.959Z,28.17
2018-01-13T07:51:46.207Z,28.97
2018-01-13T07:54:13.702Z,27.73
2018-01-13T07:56:41.186Z,28.83
2018-01-13T07:59:09.417Z,28.93
2018-01-13T08:01:36.929Z,28.17
2018-01-13T08:04:04.517Z,34.03
2018-01-13T08:06:32.048Z,33.47
2018-01-13T08:08:59.534Z,31.37
2018-01-13T08:11:27.005Z,32.87
2018-01-13T08:13:54.493Z,31.03
2018-01-13T08:16:22.740Z,27.97
2018-01-13T08:18:50.248Z,29.23
2018-01-13T08:21:18.492Z,33.37
2018-01-13T08:23:45.980Z,34.60
2018-01-13T08:26:13.446Z,30.67
2018-01-13T08:28:41.026Z,38.00
2018-01-13T08:31:08.553Z,44.57
2018-01-13T08:33:36.074Z,36.87
2018-01-13T08:36:03.641Z,47.13
2018-01-13T08:38:31.209Z,55.73
2018-01-13T08:40:58.779Z,41.27
2018-01-13T08:43:26.256Z,38.70
2018-01-13T08:45:53.832Z,42.13
2018-01-13T08:48:21.640Z,38.13
2018-01-13T08:50:49.175Z,47.27
2018-01-13T08:53:16.644Z,38.67
2018-01-13T08:55:45.641Z,42.67
2018-01-13T08:58:14.049Z,42.50
2018-01-13T09:00:42.313Z,31.67
2018-01-13T09:03:09.788Z,36.83
2018-01-13T09:05:37.263Z,37.37
2018-01-13T09:08:04.740Z,37.37
2018-01-13T09:10:33.062Z,35.10
2018-01-13T09:13:00.587Z,31.07
2018-01-13T09:15:28.076Z,37.70
2018-01-13T09:17:56.352Z,30.70
2018-01-13T09:20:23.829Z,35.37
2018-01-13T09:22:52.681Z,30.87
2018-01-13T09:25:20.226Z,25.90
2018-01-13T09:27:47.712Z,33.87
2018-01-13T09:30:15.187Z,30.40
2018-01-13T09:32:42.672Z,29.50
2018-01-13T09:35:10.135Z,30.57
2018-01-13T09:37:37.615Z,30.27
2018-01-13T09:40:05.103Z,28.90
2018-01-13T09:42:32.579Z,28.50
2018-01-13T09:45:00.096Z,31.47
2018-01-13T09:47:27.552Z,27.33
2018-01-13T09:49:55.037Z,28.03
2018-01-13T09:52:22.547Z,32.50
2018-01-13T09:54:50.852Z,39.27
2018-01-13T09:57:19.261Z,22.97
2018-01-13T09:59:46.760Z,27.43
2018-01-13T10:02:14.271Z,24.90
2018-01-13T10:04:41.849Z,21.47
2018-01-13T10:07:10.123Z,20.13
2018-01-13T10:09:37.614Z,26.73
2018-01-13T10:12:05.861Z,28.00
2018-01-13T10:14:33.336Z,27.93
2018-01-13T10:17:00.817Z,25.07
2018-01-13T10:19:28.391Z,28.20
2018-01-13T10:21:55.888Z,30.53
2018-01-13T10:24:24.128Z,25.30
2018-01-13T10:26:51.804Z,28.93
2018-01-13T10:29:19.280Z,26.33
2018-01-13T10:31:46.870Z,34.23
2018-01-13T10:34:14.543Z,38.70
2018-01-13T10:36:42.037Z,33.73
2018-01-13T10:39:09.523Z,35.23
2018-01-13T10:41:37.005Z,30.03
2018-01-13T10:44:04.575Z,32.37
2018-01-13T10:46:32.056Z,30.47
2018-01-13T10:48:59.523Z,33.77
2018-01-13T10:51:27.035Z,33.90
2018-01-13T10:53:54.514Z,28.10
2018-01-13T10:56:22.756Z,28.13
2018-01-13T10:58:50.228Z,31.10
2018-01-13T11:01:17.834Z,33.97
2018-01-13T11:03:46.088Z,35.37
2018-01-13T11:06:13.580Z,34.80
2018-01-13T11:08:41.251Z,35.30
2018-01-13T11:11:09.512Z,34.97
2018-01-13T11:13:37.012Z,32.47
2018-01-13T11:16:06.002Z,35.97
2018-01-13T11:18:33.469Z,31.97
2018-01-13T11:21:00.961Z,36.07
2018-01-13T11:23:28.633Z,29.63
2018-01-13T11:25:56.120Z,32.07
2018-01-13T11:28:24.387Z,36.23
2018-01-13T11:30:53.372Z,33.33
2018-01-13T11:33:20.864Z,32.93
2018-01-13T11:35:48.432Z,29.03
2018-01-13T11:38:15.948Z,33.53
2018-01-13T11:40:43.473Z,25.17
2018-01-13T11:43:11.716Z,27.53
2018-01-13T11:45:39.187Z,29.03
2018-01-13T11:48:06.710Z,29.60
2018-01-13T11:50:34.181Z,30.73
2018-01-13T11:53:02.412Z,33.67
2018-01-13T11:55:29.925Z,35.73
2018-01-13T11:57:57.407Z,30.00
2018-01-13T12:00:25.059Z,30.40
2018-01-13T12:02:52.549Z,31.53
2018-01-13T12:05:20.836Z,33.03
2018-01-13T12:07:49.097Z,29.17
2018-01-13T12:10:16.568Z,34.10
2018-01-13T12:12:44.049Z,31.43
2018-01-13T12:15:11.664Z,29.50
2018-01-13T12:17:39.152Z,31.40
2018-01-13T12:20:06.627Z,27.17
2018-01-13T12:22:34.104Z,28.73
2018-01-13T12:25:01.585Z,29.60
2018-01-13T12:27:29.060Z,29.73
2018-01-13T12:29:56.535Z,28.87
2018-01-13T12:32:24.010Z,29.30
2018-01-13T12:34:51.567Z,25.17
2018-01-13T12:37:19.040Z,28.83
2018-01-13T12:39:46.507Z,32.93
2018-01-13T12:42:14.088Z,38.67
2018-01-13T12:44:41.575Z,28.63
2018-01-13T12:47:09.824Z,24.47
2018-01-13T12:49:37.311Z,24.70
2018-01-13T12:52:06.298Z,22.23
2018-01-13T12:54:33.793Z,20.97
2018-01-13T12:57:02.166Z,22.47
2018-01-13T12:59:31.151Z,23.00
2018-01-13T13:01:58.632Z,22.97
2018-01-13T13:04:26.107Z,23.37
2018-01-13T13:06:53.583Z,21.93
2018-01-13T13:09:21.068Z,23.37
2018-01-13T13:11:49.314Z,21.93
2018-01-13T13:14:16.794Z,20.77
2018-01-13T13:16:44.379Z,21.67
2018-01-13T13:19:11.854Z,23.20
2018-01-13T13:21:40.119Z,21.70
2018-01-13T13:24:07.616Z,20.03
2018-01-13T13:26:35.884Z,17.90
2018-01-13T13:29:03.378Z,21.93
2018-01-13T13:31:31.743Z,20.87
2018-01-13T13:33:59.221Z,22.23
2018-01-13T13:36:26.695Z,19.93
2018-01-13T13:38:54.173Z,25.10
2018-01-13T13:41:22.552Z,23.43
2018-01-13T13:43:50.025Z,26.60
2018-01-13T13:46:17.503Z,27.47
2018-01-13T13:48:45.747Z,27.03
2018-01-13T13:51:13.223Z,28.80
2018-01-13T13:53:40.691Z,20.17
2018-01-13T13:56:08.175Z,21.27
2018-01-13T13:58:35.758Z,19.33
2018-01-13T14:01:28.367Z,18.53
2018-01-13T14:03:33.047Z,19.97
2018-01-13T14:06:01.343Z,18.43
2018-01-13T14:08:28.916Z,16.30
2018-01-13T14:10:56.388Z,18.63
2018-01-13T14:13:24.644Z,20.30
2018-01-13T14:15:52.128Z,18.83
2018-01-13T14:18:19.665Z,19.73
2018-01-13T14:20:47.179Z,18.00
2018-01-13T14:23:14.661Z,22.03
2018-01-13T14:25:42.912Z,19.37
2018-01-13T14:28:10.404Z,19.93
2018-01-13T14:30:37.889Z,20.80
2018-01-13T14:33:06.160Z,18.87
2018-01-13T14:35:33.643Z,16.60
2018-01-13T14:38:01.915Z,18.33
2018-01-13T14:40:29.401Z,17.17
2018-01-13T14:42:57.636Z,18.60
2018-01-13T14:45:25.116Z,20.40
2018-01-13T14:47:52.583Z,21.37
2018-01-13T14:50:20.060Z,21.73
2018-01-13T14:52:47.541Z,18.43
2018-01-13T14:55:15.019Z,21.20
2018-01-13T14:57:42.494Z,29.87
2018-01-13T15:00:10.776Z,23.87
2018-01-13T15:02:38.249Z,19.67
2018-01-13T15:05:06.492Z,17.27
2018-01-13T15:07:33.995Z,20.67
2018-01-13T15:10:01.468Z,17.80
2018-01-13T15:12:29.715Z,17.23
2018-01-13T15:14:57.187Z,17.73
2018-01-13T15:17:24.697Z,17.43
2018-01-13T15:19:52.177Z,13.80
2018-01-13T15:22:20.457Z,15.17
2018-01-13T15:24:48.024Z,16.77
2018-01-13T15:27:15.591Z,17.73
2018-01-13T15:29:43.166Z,14.90
2018-01-13T15:32:10.731Z,17.07
2018-01-13T15:34:38.204Z,16.63
2018-01-13T15:37:05.782Z,17.90
2018-01-13T15:39:33.259Z,17.20
2018-01-13T15:42:01.675Z,19.07
2018-01-13T15:44:29.140Z,19.97
2018-01-13T15:46:56.616Z,19.13
2018-01-13T15:49:24.146Z,19.70
2018-01-13T15:51:51.632Z,17.57
2018-01-13T15:54:19.919Z,15.83
2018-01-13T15:56:48.192Z,21.20
2018-01-13T15:59:15.774Z,18.37
2018-01-13T16:01:44.045Z,19.13
2018-01-13T16:04:11.528Z,19.20
2018-01-13T16:06:39.776Z,17.00
2018-01-13T16:09:07.324Z,18.03
2018-01-13T16:11:34.804Z,19.63
2018-01-13T16:14:02.320Z,18.23
2018-01-13T16:16:29.840Z,18.43
2018-01-13T16:18:57.357Z,19.23
2018-01-13T16:21:25.089Z,23.17
2018-01-13T16:23:52.621Z,16.27
2018-01-13T16:26:20.891Z,20.47
2018-01-13T16:28:49.177Z,18.70
2018-01-13T16:31:17.375Z,18.33
2018-01-13T16:33:45.624Z,25.70
2018-01-13T16:36:13.171Z,19.63
2018-01-13T16:38:40.688Z,21.63
2018-01-13T16:41:08.943Z,20.27
2018-01-13T16:43:36.428Z,18.27
2018-01-13T16:46:03.905Z,16.73
2018-01-13T16:48:32.138Z,17.70
2018-01-13T16:50:59.681Z,18.47
2018-01-13T16:53:27.965Z,19.50
2018-01-13T16:55:55.531Z,17.03
2018-01-13T16:58:24.670Z,18.67
2018-01-13T17:00:52.147Z,18.53
2018-01-13T17:03:19.635Z,19.33
2018-01-13T17:05:47.107Z,15.47
2018-01-13T17:08:14.597Z,15.83
2018-01-13T17:10:42.080Z,18.20
2018-01-13T17:13:09.564Z,17.00
2018-01-13T17:15:37.799Z,17.43
2018-01-13T17:18:05.285Z,17.77
2018-01-13T17:20:32.778Z,16.77
2018-01-13T17:23:00.262Z,18.17
2018-01-13T17:25:28.504Z,19.93
2018-01-13T17:27:55.991Z,17.23
2018-01-13T17:30:23.564Z,20.23
2018-01-13T17:32:51.030Z,18.80
2018-01-13T17:35:18.652Z,20.40
2018-01-13T17:37:46.136Z,20.13
2018-01-13T17:40:13.624Z,14.53
2018-01-13T17:42:41.096Z,16.43
2018-01-13T17:45:08.580Z,19.60
2018-01-13T17:47:36.158Z,19.97
2018-01-13T17:50:03.682Z,17.10
2018-01-13T17:52:31.156Z,19.03
2018-01-13T17:54:58.695Z,18.47
2018-01-13T17:57:26.936Z,15.07
2018-01-13T17:59:57.860Z,16.90
2018-01-13T18:02:25.718Z,16.07
2018-01-13T18:04:53.290Z,17.80
2018-01-13T18:07:20.772Z,17.13
2018-01-13T18:09:48.295Z,18.07
2018-01-13T18:12:15.864Z,16.10
2018-01-13T18:14:43.436Z,16.67
2018-01-13T18:17:11.007Z,17.37
2018-01-13T18:19:38.592Z,19.27
2018-01-13T18:22:06.832Z,16.87
2018-01-13T18:24:35.162Z,19.53
2018-01-13T18:27:04.187Z,19.13
2018-01-13T18:29:31.716Z,18.43
2018-01-13T18:31:59.188Z,17.57
2018-01-13T18:34:26.711Z,17.37
2018-01-13T18:36:54.226Z,18.50
2018-01-13T18:39:21.696Z,20.87
2018-01-13T18:41:49.217Z,21.03
2018-01-13T18:44:16.757Z,19.37
2018-01-13T18:46:44.277Z,18.90
2018-01-13T18:49:11.802Z,19.20
2018-01-13T18:51:39.403Z,19.23
2018-01-13T18:54:06.974Z,19.17
2018-01-13T18:56:34.507Z,19.60
2018-01-13T18:59:02.124Z,18.67
2018-01-13T19:01:29.616Z,16.07
2018-01-13T19:03:57.169Z,19.40
2018-01-13T19:06:24.662Z,19.13
2018-01-13T19:08:52.186Z,18.77
2018-01-13T19:11:20.600Z,19.87
2018-01-13T19:13:48.119Z,21.87
2018-01-13T19:16:15.645Z,19.23
2018-01-13T19:18:43.112Z,21.93
2018-01-13T19:21:10.642Z,22.47
2018-01-13T19:23:38.169Z,21.40
2018-01-13T19:26:05.686Z,20.23
2018-01-13T19:28:33.246Z,21.10
2018-01-13T19:31:00.739Z,21.53
2018-01-13T19:33:29.059Z,22.73
2018-01-13T19:35:56.632Z,21.50
2018-01-13T19:38:24.140Z,19.50
2018-01-13T19:40:51.659Z,24.03
2018-01-13T19:43:19.221Z,24.97
2018-01-13T19:45:47.076Z,22.27
2018-01-13T19:48:15.409Z,20.90
2018-01-13T19:50:42.936Z,21.43
2018-01-13T19:53:10.470Z,23.50
2018-01-13T19:55:37.976Z,23.53
2018-01-13T19:58:05.518Z,24.33
2018-01-13T20:00:33.053Z,23.00
2018-01-13T20:03:00.661Z,21.33
2018-01-13T20:05:28.299Z,20.00
2018-01-13T20:07:55.820Z,20.23
2018-01-13T20:10:23.546Z,17.83
2018-01-13T20:12:51.068Z,19.87
2018-01-13T20:15:18.644Z,23.57
2018-01-13T20:17:46.162Z,22.03
2018-01-13T20:20:14.457Z,23.60
2018-01-13T20:22:41.988Z,23.30
2018-01-13T20:25:10.293Z,23.43
2018-01-13T20:27:37.822Z,27.07
2018-01-13T20:30:06.813Z,22.50
2018-01-13T20:32:34.299Z,24.00
2018-01-13T20:35:01.843Z,21.90
2018-01-13T20:37:30.186Z,22.97
2018-01-13T20:39:58.492Z,26.07
2018-01-13T20:42:26.011Z,25.10
2018-01-13T20:44:53.547Z,31.83
2018-01-13T20:47:21.043Z,36.13
2018-01-13T20:49:49.425Z,29.63
2018-01-13T20:52:17.051Z,31.57
2018-01-13T20:54:44.554Z,29.80
2018-01-13T20:57:12.089Z,30.33
2018-01-13T20:59:42.012Z,34.90
2018-01-13T21:02:09.909Z,26.10
2018-01-13T21:04:37.788Z,26.20
2018-01-13T21:07:05.339Z,29.50
2018-01-13T21:09:33.749Z,29.00
2018-01-13T21:12:01.275Z,29.53
2018-01-13T21:14:28.906Z,30.60
2018-01-13T21:16:56.565Z,30.43
2018-01-13T21:19:24.148Z,35.33
2018-01-13T21:21:51.813Z,29.17
2018-01-13T21:24:19.339Z,29.17
2018-01-13T21:26:47.620Z,33.03
2018-01-13T21:29:15.151Z,36.87
2018-01-13T21:31:42.926Z,37.53
2018-01-13T21:34:10.465Z,36.10
2018-01-13T21:36:38.029Z,39.73
2018-01-13T21:39:06.324Z,40.97
2018-01-13T21:41:34.625Z,38.97
2018-01-13T21:44:02.214Z,41.87
2018-01-13T21:46:29.778Z,45.27
2018-01-13T21:48:57.441Z,43.20
2018-01-13T21:51:24.998Z,52.70
2018-01-13T21:53:53.291Z,44.73
2018-01-13T21:56:21.583Z,33.00
2018-01-13T21:58:49.118Z,35.43
2018-01-13T22:01:16.652Z,32.60
2018-01-13T22:03:44.174Z,33.70
2018-01-13T22:06:11.779Z,33.00
2018-01-13T22:08:40.091Z,34.40
2018-01-13T22:11:07.662Z,40.27
2018-01-13T22:13:35.235Z,35.67
2018-01-13T22:16:02.947Z,31.83
2018-01-13T22:18:30.476Z,35.77
2018-01-13T22:20:58.256Z,37.77
2018-01-13T22:23:25.813Z,38.93
2018-01-13T22:25:54.325Z,36.93
2018-01-13T22:28:22.214Z,37.07
2018-01-13T22:30:50.077Z,33.73
2018-01-13T22:33:17.956Z,37.00
2018-01-13T22:38:46.793Z,36.37
2018-01-13T22:41:14.614Z,35.50
2018-01-13T22:43:42.859Z,30.90
2018-01-13T22:46:10.533Z,39.47
2018-01-13T22:48:38.306Z,34.30
2018-01-13T22:51:06.061Z,35.07
2018-01-13T22:53:34.570Z,31.53
2018-01-13T22:56:03.880Z,35.20
2018-01-13T22:58:31.666Z,34.83
2018-01-13T23:00:59.543Z,32.33
2018-01-13T23:03:27.246Z,31.57
2018-01-13T23:05:54.984Z,33.03
2018-01-13T23:08:22.476Z,30.70
2018-01-13T23:10:49.987Z,28.87
2018-01-13T23:13:17.518Z,30.23
2018-01-13T23:15:44.988Z,31.63
2018-01-13T23:18:12.496Z,28.13
2018-01-13T23:20:40.118Z,28.20
2018-01-13T23:23:07.692Z,26.50
2018-01-13T23:25:35.205Z,30.17
2018-01-13T23:28:02.834Z,28.53
2018-01-13T23:30:30.349Z,24.23
2018-01-13T23:32:57.986Z,26.20
2018-01-13T23:35:25.546Z,30.30
2018-01-13T23:37:53.269Z,26.43
2018-01-13T23:40:20.743Z,27.63
2018-01-13T23:42:48.412Z,26.37
2018-01-13T23:45:15.988Z,23.70
2018-01-13T23:47:43.642Z,26.83
2018-01-13T23:50:11.109Z,29.17
2018-01-13T23:52:38.621Z,28.93
2018-01-13T23:55:06.883Z,30.10
2018-01-13T23:57:34.499Z,27.60
